Time;durP1;ratioP1;P1;durP2;ratioP2;P2;SDS_P1;SDS_P2;PMS_P1;PMS_P2;Temp;Humidity;BMP_temperature;BMP_pressure;BME280_temperature;BME280_humidity;BME280_pressure;Samples;Min_cycle;Max_cycle;Signal;HPM_P1;HPM_P2
2022/06/04 00:01:26;;;;;;;8.50;5.90;;;;;;;14.66;55.31;102169.78;5181339;28;20520;-46
2022/06/04 00:03:58;;;;;;;10.18;6.93;;;;;;;14.66;55.41;102167.13;5177578;28;20412;-49
2022/06/04 00:06:30;;;;;;;11.90;6.47;;;;;;;14.66;55.55;102175.09;5179605;28;20463;-48
2022/06/04 00:09:07;;;;;;;10.07;6.30;;;;;;;14.51;55.72;102165.88;5178705;28;20529;-46
2022/06/04 00:17:26;;;;;;;14.88;7.93;;;;;;;14.48;56.09;102174.13;5114636;28;20944;-49
2022/06/04 00:19:58;;;;;;;9.63;6.85;;;;;;;14.45;56.05;102171.75;5179985;28;20501;-46
2022/06/04 00:22:31;;;;;;;9.90;8.05;;;;;;;14.45;56.06;102158.47;5175565;28;20419;-50
2022/06/04 00:25:11;;;;;;;9.68;7.63;;;;;;;14.45;56.13;102177.06;5171728;28;20990;-46
2022/06/04 00:27:43;;;;;;;12.63;8.07;;;;;;;14.32;56.21;102165.91;5176718;28;20415;-44
2022/06/04 00:30:16;;;;;;;14.95;7.93;;;;;;;14.32;56.50;102160.59;5177764;28;20419;-46
2022/06/04 00:32:48;;;;;;;11.52;7.90;;;;;;;14.15;56.41;102128.41;5171868;28;20493;-50
2022/06/04 00:35:21;;;;;;;13.70;8.70;;;;;;;14.34;56.59;102170.09;5164270;28;20519;-50
2022/06/04 00:37:54;;;;;;;17.73;8.38;;;;;;;14.29;56.53;102188.28;5162703;28;20794;-49
2022/06/04 00:40:37;;;;;;;14.95;8.40;;;;;;;14.10;56.77;102141.31;5158025;28;20426;-52
2022/06/04 00:43:10;;;;;;;13.45;8.52;;;;;;;14.16;56.73;102166.47;5154019;28;20432;-46
2022/06/04 00:46:48;;;;;;;10.67;8.00;;;;;;;14.24;56.92;102169.25;5158529;28;20970;-47
2022/06/04 00:49:20;;;;;;;12.52;9.13;;;;;;;14.27;56.98;102179.59;5131986;28;20454;-50
2022/06/04 00:51:54;;;;;;;12.38;9.07;;;;;;;14.11;57.14;102148.28;5158500;28;20483;-49
2022/06/04 00:54:28;;;;;;;14.20;9.10;;;;;;;14.22;57.15;102179.19;5159222;28;20527;-45
2022/06/04 00:57:39;;;;;;;13.38;9.40;;;;;;;14.19;57.42;102171.50;5153592;28;20584;-47
2022/06/04 01:00:17;;;;;;;11.20;8.88;;;;;;;13.97;57.53;102156.69;5156048;28;20883;-47
2022/06/04 01:03:22;;;;;;;14.43;9.38;;;;;;;13.99;57.64;102173.31;5156625;28;20429;-49
2022/06/04 01:06:15;;;;;;;15.38;9.57;;;;;;;14.00;57.91;102189.13;5152725;28;20422;-47
2022/06/04 01:09:22;;;;;;;17.98;8.82;;;;;;;13.97;57.88;102184.09;5155567;28;20504;-49
2022/06/04 01:12:16;;;;;;;14.93;9.73;;;;;;;13.75;57.82;102158.66;5152701;28;20507;-46
2022/06/04 01:15:15;;;;;;;14.40;9.50;;;;;;;13.88;58.04;102173.47;5157777;28;20411;-50
2022/06/04 01:18:01;;;;;;;12.53;8.80;;;;;;;13.88;58.30;102169.00;5151410;28;20509;-52
2022/06/04 01:20:46;;;;;;;15.10;9.35;;;;;;;13.48;58.40;102114.16;5157688;28;21043;-49
2022/06/04 01:24:02;;;;;;;20.50;9.25;;;;;;;13.89;58.33;102169.81;5153811;28;20442;-48
2022/06/04 01:27:08;;;;;;;14.18;8.98;;;;;;;13.84;58.70;102168.44;5153946;28;20511;-47
2022/06/04 01:29:56;;;;;;;15.38;9.35;;;;;;;13.80;58.89;102167.00;5156931;28;20425;-48
2022/06/04 01:32:34;;;;;;;11.52;8.35;;;;;;;13.77;58.84;102164.63;5153615;28;20410;-46
2022/06/04 01:35:14;;;;;;;16.33;8.93;;;;;;;13.72;59.05;102158.06;5164626;28;20476;-46
2022/06/04 01:37:53;;;;;;;12.63;8.73;;;;;;;13.74;58.97;102156.94;5161828;28;20488;-43
2022/06/04 01:43:26;;;;;;;12.90;7.50;;;;;;;13.78;59.29;102169.00;5177332;28;20416;-48
2022/06/04 01:46:10;;;;;;;12.90;7.25;;;;;;;13.76;59.22;102173.59;5175680;28;21020;-46
2022/06/04 01:48:46;;;;;;;12.35;8.52;;;;;;;13.78;59.43;102179.59;5176556;28;20438;-49
2022/06/04 01:51:23;;;;;;;16.08;8.20;;;;;;;13.69;59.35;102176.91;5175417;28;20475;-51
2022/06/04 01:54:00;;;;;;;16.27;8.50;;;;;;;13.79;59.45;102185.75;5178954;28;20433;-48
2022/06/04 01:56:39;;;;;;;20.02;8.82;;;;;;;13.80;59.50;102190.91;5176190;28;20505;-49
2022/06/04 01:59:24;;;;;;;14.40;7.97;;;;;;;13.81;59.42;102195.25;5178298;28;20431;-49
2022/06/04 02:02:01;;;;;;;14.00;8.43;;;;;;;13.86;59.51;102204.63;5172873;28;20441;-49
2022/06/04 02:04:39;;;;;;;15.35;8.35;;;;;;;13.89;59.46;102207.00;5175890;28;20451;-45
2022/06/04 02:07:32;;;;;;;13.07;8.38;;;;;;;13.96;59.57;102214.25;5177185;28;20413;-45
2022/06/04 02:10:13;;;;;;;15.80;9.32;;;;;;;13.96;59.61;102208.13;5175481;28;20836;-46
2022/06/04 02:12:49;;;;;;;16.08;8.40;;;;;;;13.83;59.60;102203.91;5175812;28;20511;-45
2022/06/04 02:15:28;;;;;;;16.40;9.63;;;;;;;13.96;59.67;102210.78;5171830;28;20509;-48
2022/06/04 02:18:03;;;;;;;16.47;8.97;;;;;;;13.98;59.82;102211.50;5172817;28;20618;-48
2022/06/04 02:20:35;;;;;;;17.13;10.20;;;;;;;14.05;59.69;102212.59;5176408;28;20483;-47
2022/06/04 02:23:08;;;;;;;14.85;9.55;;;;;;;13.99;59.91;102207.84;5175081;28;20431;-47
2022/06/04 02:25:40;;;;;;;16.73;9.77;;;;;;;14.07;59.85;102216.81;5176234;28;20762;-48
2022/06/04 02:28:13;;;;;;;12.77;8.57;;;;;;;14.01;60.08;102203.25;5176648;28;20905;-46
2022/06/04 02:31:08;;;;;;;12.43;8.75;;;;;;;13.96;60.11;102201.00;5179015;28;20443;-46
2022/06/04 02:33:52;;;;;;;13.65;8.95;;;;;;;13.91;60.52;102200.59;5175304;28;20891;-48
2022/06/04 02:36:34;;;;;;;18.02;7.90;;;;;;;13.90;60.56;102206.03;5173078;28;20411;-50
2022/06/04 02:39:13;;;;;;;18.80;9.25;;;;;;;13.91;60.58;102194.44;5173720;28;20814;-46
2022/06/04 02:41:53;;;;;;;16.50;8.23;;;;;;;13.95;60.54;102185.22;5179397;28;20411;-45
2022/06/04 02:44:30;;;;;;;14.30;7.95;;;;;;;13.96;60.54;102185.06;5172421;28;20821;-44
2022/06/04 02:47:09;;;;;;;12.48;8.35;;;;;;;13.98;60.55;102187.59;5176514;28;20439;-46
2022/06/04 02:49:55;;;;;;;20.05;9.60;;;;;;;13.93;60.68;102182.66;5174749;28;20542;-46
2022/06/04 02:52:31;;;;;;;12.13;8.00;;;;;;;13.96;60.81;102186.88;5174629;28;20423;-48
2022/06/04 02:55:08;;;;;;;15.55;9.07;;;;;;;13.93;60.84;102185.31;5179433;28;20437;-45
2022/06/04 02:57:47;;;;;;;15.25;9.07;;;;;;;13.97;60.79;102192.06;5175110;28;20525;-47
2022/06/04 03:00:23;;;;;;;18.20;9.05;;;;;;;13.74;60.89;102188.81;5171978;28;20415;-48
2022/06/04 03:02:57;;;;;;;19.97;8.80;;;;;;;13.82;60.99;102165.06;5173235;28;20430;-48
2022/06/04 03:05:30;;;;;;;16.48;8.60;;;;;;;13.99;60.76;102190.09;5174828;28;20499;-47
2022/06/04 03:08:05;;;;;;;15.52;8.85;;;;;;;14.00;60.91;102185.63;5177509;28;20434;-50
2022/06/04 03:10:38;;;;;;;13.77;7.60;;;;;;;14.01;60.89;102196.09;5170914;28;20516;-47
2022/06/04 03:13:10;;;;;;;15.43;8.20;;;;;;;14.01;60.95;102195.28;5172820;28;20489;-47
2022/06/04 03:15:43;;;;;;;15.77;8.20;;;;;;;13.96;61.05;102185.06;5170494;28;20506;-46
2022/06/04 03:18:18;;;;;;;14.13;8.30;;;;;;;14.01;60.95;102187.31;5175893;28;20775;-46
2022/06/04 03:20:50;;;;;;;17.80;8.80;;;;;;;13.93;60.91;102176.53;5172949;28;20509;-48
2022/06/04 03:23:23;;;;;;;19.20;8.63;;;;;;;13.66;60.93;102138.22;5177936;28;20452;-47
2022/06/04 03:25:55;;;;;;;19.42;8.77;;;;;;;13.86;61.00;102162.13;5172939;28;20469;-46
2022/06/04 03:28:27;;;;;;;17.65;8.52;;;;;;;13.99;61.02;102181.28;5171972;28;20448;-46
2022/06/04 03:31:01;;;;;;;15.13;8.07;;;;;;;14.00;61.12;102186.47;5176126;28;20453;-49
2022/06/04 03:33:35;;;;;;;15.38;8.13;;;;;;;13.86;61.04;102164.78;5175284;28;20808;-46
2022/06/04 03:36:10;;;;;;;15.77;8.35;;;;;;;14.11;60.86;102169.53;5174073;28;20890;-50
2022/06/04 03:38:43;;;;;;;16.75;9.05;;;;;;;14.07;60.86;102149.56;5173892;28;20725;-47
2022/06/04 03:41:15;;;;;;;16.75;8.98;;;;;;;14.04;60.92;102153.34;5176666;28;20483;-50
2022/06/04 03:43:51;;;;;;;19.92;10.32;;;;;;;14.03;60.98;102172.09;5173223;28;20399;-43
2022/06/04 03:46:26;;;;;;;19.90;10.32;;;;;;;13.94;60.96;102168.44;5173097;28;20434;-48
2022/06/04 03:49:00;;;;;;;17.87;10.07;;;;;;;13.87;61.25;102177.06;5173701;28;20442;-50
2022/06/04 03:51:32;;;;;;;15.73;9.65;;;;;;;13.80;61.39;102182.94;5178556;28;20512;-48
2022/06/04 03:54:05;;;;;;;19.33;9.68;;;;;;;13.79;61.40;102185.75;5179295;28;20419;-49
2022/06/04 03:56:37;;;;;;;15.25;9.13;;;;;;;13.76;61.35;102183.38;5173281;28;20415;-47
2022/06/04 03:59:10;;;;;;;16.63;8.75;;;;;;;13.50;61.34;102148.53;5176718;28;20511;-49
2022/06/04 04:01:52;;;;;;;19.40;9.77;;;;;;;13.83;61.22;102190.63;5172496;28;20418;-50
2022/06/04 04:04:26;;;;;;;23.10;9.50;;;;;;;13.86;61.23;102191.34;5176669;28;20439;-49
2022/06/04 04:06:59;;;;;;;20.83;9.50;;;;;;;13.85;61.29;102187.84;5183534;28;20419;-47
2022/06/04 04:09:32;;;;;;;17.60;9.23;;;;;;;13.88;61.36;102194.72;5180287;28;20761;-46
2022/06/04 04:12:05;;;;;;;13.38;8.27;;;;;;;13.74;61.22;102170.22;5177754;28;20455;-47
2022/06/04 04:14:38;;;;;;;20.40;8.65;;;;;;;13.93;61.06;102200.44;5180362;28;21081;-48
2022/06/04 04:17:10;;;;;;;19.70;9.65;;;;;;;13.98;61.47;102193.72;5178531;28;20491;-46
2022/06/04 04:19:44;;;;;;;18.35;9.65;;;;;;;13.94;61.26;102189.69;5183208;28;20772;-46
2022/06/04 04:22:16;;;;;;;17.77;8.25;;;;;;;14.01;61.27;102200.59;5177692;28;20957;-49
2022/06/04 04:24:49;;;;;;;15.07;8.30;;;;;;;14.03;61.34;102199.47;5173776;28;20458;-51
2022/06/04 04:27:21;;;;;;;16.67;8.82;;;;;;;13.37;61.19;102108.97;5179145;28;20458;-49
2022/06/04 04:29:53;;;;;;;17.27;8.35;;;;;;;14.03;61.24;102185.34;5178363;28;20815;-46
2022/06/04 04:32:26;;;;;;;19.77;8.63;;;;;;;14.06;61.34;102193.06;5177256;28;20518;-46
2022/06/04 04:35:00;;;;;;;17.38;9.40;;;;;;;14.06;61.18;102195.72;5177917;28;20421;-47
2022/06/04 04:37:32;;;;;;;11.50;8.40;;;;;;;14.06;61.43;102198.38;5178458;28;20849;-45
2022/06/04 04:40:08;;;;;;;19.33;8.63;;;;;;;14.05;61.34;102199.31;5176770;28;20419;-52
2022/06/04 04:42:40;;;;;;;15.90;8.52;;;;;;;14.02;61.41;102196.94;5176420;28;20411;-48
2022/06/04 04:45:13;;;;;;;18.52;8.82;;;;;;;14.09;61.29;102179.50;5177055;28;20957;-51
2022/06/04 04:47:48;;;;;;;15.97;8.43;;;;;;;14.09;61.35;102182.16;5175763;28;20473;-49
2022/06/04 04:50:26;;;;;;;16.35;8.07;;;;;;;14.09;61.37;102187.47;5176878;28;21377;-45
2022/06/04 04:53:00;;;;;;;17.45;8.85;;;;;;;14.13;61.38;102186.19;5174492;28;20882;-45
2022/06/04 04:55:33;;;;;;;19.73;8.17;;;;;;;14.11;61.46;102179.34;5177930;28;20504;-47
2022/06/04 04:58:07;;;;;;;18.05;9.00;;;;;;;14.05;61.44;102170.09;5176047;28;20432;-45
2022/06/04 05:00:40;;;;;;;17.23;8.27;;;;;;;14.07;61.51;102174.31;5176607;28;20417;-46
2022/06/04 05:03:13;;;;;;;10.73;6.72;;;;;;;14.12;61.49;102175.69;5179237;28;20932;-45
2022/06/04 05:05:56;;;;;;;17.55;8.45;;;;;;;14.23;61.44;102184.34;5177749;28;20415;-48
2022/06/04 05:08:29;;;;;;;14.65;8.18;;;;;;;14.44;61.35;102186.03;5172300;28;21201;-48
2022/06/04 05:11:08;;;;;;;14.60;8.25;;;;;;;14.90;60.87;102171.94;5176713;28;20423;-48
2022/06/04 05:13:41;;;;;;;15.55;6.60;;;;;;;15.59;60.29;102172.44;5177206;28;20428;-52
2022/06/04 05:16:13;;;;;;;16.23;6.93;;;;;;;16.03;59.95;102181.41;5183356;28;20780;-47
2022/06/04 05:18:45;;;;;;;13.13;6.90;;;;;;;16.06;59.89;102197.06;5176058;28;20849;-48
2022/06/04 05:21:24;;;;;;;9.38;6.53;;;;;;;15.83;59.99;102195.88;5148225;28;20417;-47
2022/06/04 05:23:57;;;;;;;11.20;5.88;;;;;;;15.83;60.20;102195.88;5179231;28;20897;-48
2022/06/04 05:26:29;;;;;;;13.82;6.00;;;;;;;15.73;60.07;102190.59;5179438;28;20422;-47
2022/06/04 05:29:02;;;;;;;13.85;6.82;;;;;;;15.65;59.97;102188.66;5176813;28;20475;-46
2022/06/04 05:31:34;;;;;;;13.57;6.50;;;;;;;15.56;59.92;102197.53;5181171;28;21571;-50
2022/06/04 05:34:07;;;;;;;9.93;5.57;;;;;;;15.61;59.89;102211.25;5178527;28;20521;-45
2022/06/04 05:36:41;;;;;;;12.50;6.63;;;;;;;15.65;59.61;102214.47;5175913;28;20860;-46
2022/06/04 05:39:15;;;;;;;11.77;6.22;;;;;;;15.62;59.54;102199.59;5176233;28;20430;-46
2022/06/04 05:41:47;;;;;;;12.73;7.15;;;;;;;15.74;59.46;102215.41;5175785;28;20423;-42
2022/06/04 05:44:20;;;;;;;11.70;6.32;;;;;;;15.82;59.31;102199.50;5176111;28;20502;-47
2022/06/04 05:46:53;;;;;;;12.07;5.78;;;;;;;15.92;59.26;102197.63;5177873;28;21135;-50
2022/06/04 05:49:26;;;;;;;9.18;5.75;;;;;;;16.23;58.70;102202.53;5178127;28;20639;-46
2022/06/04 05:52:00;;;;;;;12.80;5.07;;;;;;;16.48;58.46;102212.44;5177047;28;20439;-45
2022/06/04 05:54:32;;;;;;;13.32;6.18;;;;;;;16.70;58.29;102226.28;5177572;28;20573;-48
2022/06/04 05:57:06;;;;;;;8.30;4.85;;;;;;;16.91;57.88;102233.91;5185112;28;20574;-49
2022/06/04 05:59:38;;;;;;;10.73;5.28;;;;;;;17.08;57.66;102229.53;5179744;28;20430;-47
2022/06/04 06:02:11;;;;;;;11.07;5.60;;;;;;;17.18;57.34;102224.91;5175778;28;20877;-47
2022/06/04 06:04:44;;;;;;;10.63;4.85;;;;;;;17.87;56.76;102220.31;5174173;28;20740;-51
2022/06/04 06:07:18;;;;;;;11.38;4.95;;;;;;;18.92;55.48;102223.19;5179802;28;20429;-51
2022/06/04 06:09:50;;;;;;;7.00;3.50;;;;;;;20.08;54.03;102234.06;5174006;28;20490;-54
2022/06/04 06:12:22;;;;;;;7.68;4.15;;;;;;;20.71;52.92;102227.50;5177579;28;20433;-51
2022/06/04 06:14:55;;;;;;;7.65;4.13;;;;;;;20.41;53.07;102215.03;5176398;28;20709;-52
2022/06/04 06:17:27;;;;;;;7.93;4.45;;;;;;;20.06;53.43;102222.66;5165549;28;20422;-52
2022/06/04 06:20:00;;;;;;;5.80;2.95;;;;;;;19.98;53.12;102238.81;5177217;28;20466;-49
2022/06/04 06:22:33;;;;;;;7.45;3.65;;;;;;;19.60;53.22;102252.06;5175640;28;20502;-47
2022/06/04 06:25:07;;;;;;;6.45;3.50;;;;;;;19.32;53.10;102246.31;5175200;28;20518;-49
2022/06/04 06:27:40;;;;;;;8.88;3.90;;;;;;;18.81;53.14;102238.59;5180036;28;21171;-50
2022/06/04 06:30:14;;;;;;;7.65;4.18;;;;;;;18.43;53.04;102238.28;5147776;28;20430;-49
2022/06/04 06:32:47;;;;;;;6.85;3.65;;;;;;;18.18;53.42;102228.56;5172441;28;20430;-50
2022/06/04 06:35:20;;;;;;;6.85;3.90;;;;;;;18.29;53.24;102236.25;5175900;28;20852;-50
2022/06/04 06:37:54;;;;;;;9.20;3.70;;;;;;;19.28;52.27;102234.28;5173177;28;21944;-51
2022/06/04 06:40:26;;;;;;;10.20;3.93;;;;;;;19.99;51.32;102240.50;5177359;28;20443;-49
2022/06/04 06:42:59;;;;;;;9.65;3.63;;;;;;;19.97;51.22;102243.31;5176103;28;20467;-53
2022/06/04 06:45:32;;;;;;;4.85;2.80;;;;;;;20.44;50.98;102268.31;5175057;28;20923;-50
2022/06/04 06:48:04;;;;;;;6.72;3.10;;;;;;;20.03;50.83;102255.19;5174909;28;20430;-49
2022/06/04 06:50:37;;;;;;;7.63;3.13;;;;;;;19.71;51.02;102261.59;5173113;28;20476;-48
2022/06/04 06:53:11;;;;;;;6.07;3.08;;;;;;;19.33;51.10;102256.88;5173304;28;21001;-51
2022/06/04 06:55:43;;;;;;;9.95;3.08;;;;;;;18.76;51.42;102256.16;5177561;28;20419;-50
2022/06/04 06:58:16;;;;;;;6.50;3.17;;;;;;;18.26;51.75;102279.38;5173458;28;20504;-48
2022/06/04 07:00:48;;;;;;;8.38;3.72;;;;;;;17.27;52.12;102167.88;5175553;28;20888;-52
2022/06/04 07:03:21;;;;;;;5.77;3.70;;;;;;;17.69;52.08;102260.50;5172718;28;20767;-50
2022/06/04 07:05:55;;;;;;;8.30;3.63;;;;;;;17.50;52.10;102243.75;5175073;28;20565;-50
2022/06/04 07:08:29;;;;;;;7.55;3.42;;;;;;;17.30;52.49;102253.00;5177622;28;20508;-48
2022/06/04 07:11:01;;;;;;;8.40;4.03;;;;;;;17.11;52.44;102240.72;5183169;28;20509;-48
2022/06/04 07:13:34;;;;;;;9.93;4.28;;;;;;;16.98;52.58;102253.66;5188107;28;20500;-48
2022/06/04 07:16:07;;;;;;;7.25;4.22;;;;;;;16.82;52.65;102260.56;5183422;28;20422;-49
2022/06/04 07:18:39;;;;;;;8.95;4.32;;;;;;;16.79;52.68;102260.03;5177409;28;20415;-48
2022/06/04 07:21:12;;;;;;;6.50;4.15;;;;;;;16.74;52.70;102259.63;5182071;28;20757;-50
2022/06/04 07:23:45;;;;;;;6.78;4.10;;;;;;;16.64;52.83;102261.56;5187614;28;20427;-47
2022/06/04 07:26:18;;;;;;;5.95;3.97;;;;;;;16.57;52.96;102262.19;5176611;28;20432;-45
2022/06/04 07:28:51;;;;;;;8.87;4.87;;;;;;;16.07;53.06;102241.41;5179347;28;20411;-47
2022/06/04 07:31:23;;;;;;;9.05;4.57;;;;;;;16.44;53.24;102268.88;5180912;28;20410;-51
2022/06/04 07:33:58;;;;;;;7.03;4.90;;;;;;;16.40;53.31;102268.34;5185039;28;20512;-51
2022/06/04 07:36:34;;;;;;;6.15;3.97;;;;;;;16.33;53.34;102262.81;5190113;28;20510;-48
2022/06/04 07:39:10;;;;;;;11.13;4.90;;;;;;;16.28;53.37;102259.75;5189429;28;20431;-53
2022/06/04 07:41:46;;;;;;;8.30;4.20;;;;;;;16.35;53.45;102259.97;5190111;28;20910;-53
2022/06/04 07:44:19;;;;;;;5.22;3.40;;;;;;;16.34;53.34;102260.97;5186149;28;20472;-54
2022/06/04 07:46:52;;;;;;;6.57;3.95;;;;;;;16.37;53.36;102260.66;5193832;28;20423;-54
2022/06/04 07:49:25;;;;;;;5.93;4.32;;;;;;;16.28;53.44;102264.25;5194794;28;20443;-52
2022/06/04 07:51:57;;;;;;;10.20;3.80;;;;;;;16.26;53.76;102263.56;5189960;28;20426;-54
2022/06/04 07:54:31;;;;;;;6.20;4.25;;;;;;;16.14;53.56;102237.16;5189562;28;20418;-51
2022/06/04 07:57:04;;;;;;;5.87;3.57;;;;;;;16.43;53.65;102256.56;5195396;28;20445;-51
2022/06/04 07:59:37;;;;;;;6.15;3.40;;;;;;;16.43;53.47;102249.38;5187037;28;20848;-55
2022/06/04 08:02:11;;;;;;;6.93;3.42;;;;;;;16.45;53.64;102262.59;5184639;28;20816;-54
2022/06/04 08:04:44;;;;;;;6.30;3.88;;;;;;;16.71;53.68;102257.28;5190817;28;20926;-54
2022/06/04 08:07:17;;;;;;;6.22;3.40;;;;;;;17.34;53.58;102250.84;5188487;28;20411;-54
2022/06/04 08:09:50;;;;;;;8.57;3.20;;;;;;;17.68;52.97;102246.31;5190209;28;20428;-51
2022/06/04 08:12:23;;;;;;;5.05;3.00;;;;;;;17.78;52.78;102248.88;5186319;28;20514;-56
2022/06/04 08:14:55;;;;;;;6.25;3.50;;;;;;;17.91;52.72;102238.56;5184718;28;20410;-58
2022/06/04 08:17:28;;;;;;;6.20;3.00;;;;;;;18.06;52.38;102237.91;5181253;28;20419;-54
2022/06/04 08:20:01;;;;;;;7.95;3.50;;;;;;;18.07;52.10;102213.69;5185509;28;20895;-58
2022/06/04 08:22:35;;;;;;;8.63;3.42;;;;;;;18.32;51.93;102232.41;5181381;28;20533;-56
2022/06/04 08:25:09;;;;;;;5.47;2.90;;;;;;;18.49;51.54;102225.22;5191942;28;27983;-57
2022/06/04 08:27:44;;;;;;;5.97;3.38;;;;;;;18.58;51.31;102232.22;5179005;28;20427;-55
2022/06/04 08:30:17;;;;;;;6.50;2.97;;;;;;;18.65;50.79;102230.56;5181640;28;20899;-53
2022/06/04 08:32:49;;;;;;;6.35;3.35;;;;;;;18.78;50.94;102224.72;5177279;28;20750;-53
2022/06/04 08:35:22;;;;;;;9.38;3.55;;;;;;;18.97;50.55;102234.22;5183526;28;20507;-57
2022/06/04 08:37:54;;;;;;;6.28;3.35;;;;;;;18.66;50.86;102242.94;5194212;28;20450;-57
2022/06/04 08:40:32;;;;;;;10.82;4.50;;;;;;;18.73;50.48;102251.16;5186746;28;20513;-57
2022/06/04 08:43:17;;;;;;;6.53;3.65;;;;;;;18.88;50.47;102258.31;5198285;28;20854;-56
2022/06/04 08:45:50;;;;;;;5.70;3.53;;;;;;;18.97;50.21;102250.28;5186908;28;21147;-53
2022/06/04 08:48:29;;;;;;;8.73;3.37;;;;;;;18.97;50.32;102261.00;5183381;28;20732;-56
2022/06/04 08:51:03;;;;;;;7.88;3.42;;;;;;;19.13;49.98;102269.81;5188134;28;20517;-56
2022/06/04 08:53:38;;;;;;;7.70;3.80;;;;;;;19.20;49.64;102247.69;5169234;28;20918;-57
2022/06/04 08:59:22;;;;;;;5.82;3.63;;;;;;;19.65;49.08;102281.06;5180031;28;20487;-54
2022/06/04 09:01:58;;;;;;;5.43;3.40;;;;;;;19.54;49.32;102290.28;5181307;28;20460;-56
2022/06/04 09:04:49;;;;;;;7.43;3.78;;;;;;;19.42;49.40;102275.56;5174536;28;20451;-55
2022/06/04 09:07:26;;;;;;;7.60;3.60;;;;;;;19.33;49.26;102267.59;5178842;28;20470;-57
2022/06/04 09:10:07;;;;;;;6.00;3.60;;;;;;;19.48;49.35;102265.03;5181954;28;20494;-57
2022/06/04 09:12:47;;;;;;;6.70;2.85;;;;;;;19.74;49.16;102280.84;5182460;28;20502;-55
2022/06/04 09:15:24;;;;;;;4.40;2.92;;;;;;;20.02;48.58;102288.41;5180463;28;20468;-52
2022/06/04 09:17:59;;;;;;;5.32;3.20;;;;;;;20.14;48.49;102283.47;5180824;28;20456;-55
2022/06/04 09:20:38;;;;;;;6.20;3.20;;;;;;;20.53;47.93;102247.63;5181409;28;20536;-56
2022/06/04 09:23:19;;;;;;;5.18;3.20;;;;;;;21.06;47.49;102276.16;5182932;28;20411;-55
2022/06/04 09:26:00;;;;;;;6.13;3.15;;;;;;;21.13;47.20;102282.47;5170002;28;20494;-53
2022/06/04 09:28:46;;;;;;;8.48;3.33;;;;;;;21.29;46.89;102269.88;5183775;28;20496;-57
2022/06/04 09:31:32;;;;;;;3.60;2.90;;;;;;;21.43;46.90;102295.94;5180383;28;20481;-54
2022/06/04 09:34:10;;;;;;;6.88;3.50;;;;;;;21.27;46.82;102290.69;5184900;28;20499;-52
2022/06/04 09:36:45;;;;;;;6.60;3.20;;;;;;;20.91;47.07;102299.50;5170996;28;20430;-57
2022/06/04 09:39:24;;;;;;;4.50;3.42;;;;;;;20.83;46.96;102289.66;5181691;28;20426;-52
2022/06/04 09:42:00;;;;;;;5.53;3.50;;;;;;;20.77;46.68;102276.13;5175052;28;20462;-55
2022/06/04 09:44:48;;;;;;;5.63;3.25;;;;;;;20.87;46.70;102290.97;5182744;28;20614;-56
2022/06/04 09:47:26;;;;;;;3.80;2.80;;;;;;;21.07;46.42;102293.94;5177524;28;20844;-55
2022/06/04 09:50:03;;;;;;;5.83;3.50;;;;;;;21.06;46.35;102305.72;5180039;28;20498;-50
2022/06/04 09:52:39;;;;;;;6.72;3.75;;;;;;;20.94;46.60;102301.81;5178596;28;20422;-52
2022/06/04 09:55:18;;;;;;;6.70;3.95;;;;;;;21.04;46.30;102288.94;5183697;28;20450;-53
2022/06/04 09:57:59;;;;;;;5.13;3.28;;;;;;;20.99;46.45;102296.69;5175067;28;20447;-53
2022/06/04 10:00:35;;;;;;;4.32;3.60;;;;;;;20.64;46.65;102272.19;5181201;28;20522;-52
2022/06/04 10:03:16;;;;;;;6.38;3.50;;;;;;;20.81;46.60;102297.06;5181586;28;20609;-51
2022/06/04 10:05:52;;;;;;;4.32;3.53;;;;;;;21.05;46.28;102295.97;5177262;28;20582;-52
2022/06/04 10:08:26;;;;;;;6.72;3.58;;;;;;;21.31;45.72;102289.34;5180246;28;20452;-57
2022/06/04 10:11:02;;;;;;;5.77;3.40;;;;;;;21.47;45.58;102299.91;5177921;28;20436;-53
2022/06/04 10:13:46;;;;;;;8.25;3.67;;;;;;;21.34;45.56;102284.41;5173029;28;20424;-55
2022/06/04 10:16:26;;;;;;;7.83;3.77;;;;;;;21.33;45.65;102289.97;5179298;28;20431;-46
2022/06/04 10:19:03;;;;;;;5.07;3.20;;;;;;;21.44;45.76;102281.47;5173127;28;20782;-51
2022/06/04 10:21:39;;;;;;;6.90;3.92;;;;;;;21.38;45.64;102282.22;5175037;28;20515;-52
2022/06/04 10:24:22;;;;;;;5.15;3.90;;;;;;;21.19;45.97;102292.47;5175466;28;20460;-53
2022/06/04 10:27:12;;;;;;;6.50;3.60;;;;;;;20.94;46.06;102283.00;5173701;28;21047;-56
2022/06/04 10:30:04;;;;;;;9.57;4.20;;;;;;;21.05;45.94;102279.84;5158351;28;20552;-55
2022/06/04 10:32:54;;;;;;;4.80;4.03;;;;;;;21.38;45.58;102274.16;5173939;28;20611;-52
2022/06/04 10:36:01;;;;;;;4.47;3.83;;;;;;;21.64;44.91;102270.97;5171780;28;20832;-56
2022/06/04 10:38:52;;;;;;;8.05;3.72;;;;;;;21.51;45.27;102285.06;5176638;28;20426;-55
2022/06/04 10:41:35;;;;;;;8.57;4.57;;;;;;;21.27;45.25;102266.53;5175040;28;20561;-55
2022/06/04 10:44:37;;;;;;;8.05;4.45;;;;;;;21.62;45.08;102292.69;5176378;28;20415;-54
2022/06/04 10:47:26;;;;;;;8.50;4.53;;;;;;;21.92;44.58;102287.22;5169742;28;20468;-51
2022/06/04 10:50:21;;;;;;;10.82;5.28;;;;;;;22.32;44.21;102293.06;5166695;28;20455;-54
2022/06/04 10:52:59;;;;;;;12.23;4.40;;;;;;;22.59;44.07;102287.91;5158982;28;20451;-49
2022/06/04 10:55:45;;;;;;;4.90;3.30;;;;;;;22.63;43.99;102291.88;5168568;28;20442;-51
2022/06/04 10:58:31;;;;;;;7.18;3.85;;;;;;;22.52;43.81;102288.69;5172981;28;20419;-51
2022/06/04 11:01:11;;;;;;;9.32;4.28;;;;;;;22.86;43.37;102286.28;5171879;28;20431;-55
2022/06/04 11:03:53;;;;;;;7.40;4.00;;;;;;;23.43;42.72;102291.41;5171938;28;20410;-51
2022/06/04 11:06:30;;;;;;;6.70;3.15;;;;;;;23.53;42.55;102285.63;5191267;28;20488;-52
2022/06/04 11:09:09;;;;;;;7.60;4.17;;;;;;;23.57;42.26;102276.13;5202085;28;20881;-53
2022/06/04 11:11:49;;;;;;;5.75;3.50;;;;;;;23.93;41.95;102278.53;5173148;28;20409;-53
2022/06/04 11:14:36;;;;;;;5.95;3.33;;;;;;;23.85;41.86;102278.75;5178967;28;20403;-53
2022/06/04 11:17:19;;;;;;;5.80;4.18;;;;;;;23.73;42.09;102279.53;5173086;28;20435;-54
2022/06/04 11:19:59;;;;;;;5.63;3.50;;;;;;;23.71;41.95;102277.03;5177657;28;20426;-52
2022/06/04 11:22:37;;;;;;;6.28;3.80;;;;;;;23.46;42.23;102274.00;5182374;28;20770;-55
2022/06/04 11:25:27;;;;;;;6.32;3.80;;;;;;;23.19;42.46;102278.41;5178127;28;20423;-52
2022/06/04 11:28:02;;;;;;;9.40;4.25;;;;;;;22.94;42.73;102278.06;5183544;28;20430;-53
2022/06/04 11:30:48;;;;;;;8.57;4.70;;;;;;;22.55;42.88;102280.22;5182663;28;20926;-54
2022/06/04 11:33:38;;;;;;;7.95;4.70;;;;;;;22.15;43.15;102270.09;5186248;28;20471;-54
2022/06/04 11:36:24;;;;;;;7.50;4.72;;;;;;;22.22;43.21;102271.00;5173035;28;20514;-53
2022/06/04 11:39:28;;;;;;;8.57;5.03;;;;;;;22.33;43.01;102267.81;5186825;28;20481;-50
2022/06/04 11:42:06;;;;;;;7.75;4.78;;;;;;;22.14;43.04;102273.78;5186338;28;20556;-53
2022/06/04 11:45:17;;;;;;;7.72;4.43;;;;;;;22.08;43.00;102273.56;5185116;28;20982;-53
2022/06/04 11:48:05;;;;;;;6.88;3.90;;;;;;;22.14;42.98;102268.41;5180812;28;20873;-55
2022/06/04 11:50:44;;;;;;;7.35;3.97;;;;;;;22.18;42.87;102273.25;5171734;28;20492;-52
2022/06/04 11:53:26;;;;;;;7.72;4.20;;;;;;;22.22;42.86;102276.41;5187483;28;21229;-53
2022/06/04 11:56:08;;;;;;;6.53;3.90;;;;;;;22.34;42.78;102280.25;5183709;28;20484;-50
2022/06/04 11:59:03;;;;;;;6.28;3.65;;;;;;;22.33;42.68;102273.19;5190877;28;20479;-51
2022/06/04 12:01:42;;;;;;;9.23;4.68;;;;;;;22.36;42.88;102282.72;5182042;28;20881;-55
2022/06/04 12:04:21;;;;;;;8.70;4.18;;;;;;;22.27;42.90;102268.59;5192352;28;20556;-49
2022/06/04 12:07:00;;;;;;;6.07;4.25;;;;;;;22.09;43.08;102267.13;5171333;28;20458;-55
2022/06/04 12:09:41;;;;;;;9.45;5.78;;;;;;;22.14;43.11;102269.22;5172938;28;20494;-52
2022/06/04 12:12:21;;;;;;;9.80;4.35;;;;;;;22.03;43.12;102278.66;5179412;28;20490;-52
2022/06/04 12:15:03;;;;;;;7.97;4.32;;;;;;;22.12;43.03;102270.47;5170672;28;20831;-51
2022/06/04 12:17:44;;;;;;;7.95;4.40;;;;;;;22.18;43.14;102269.75;5172967;28;20432;-54
2022/06/04 12:26:29;;;;;;;8.77;4.80;;;;;;;21.80;43.38;102246.56;5178691;28;20444;-53
2022/06/04 12:29:22;;;;;;;8.00;4.70;;;;;;;21.81;43.32;102244.69;5167106;28;20432;-51